sensor_id;sensor_type;location;lat;lon;timestamp;P1;durP1;ratioP1;P2;durP2;ratioP2
6463;SDS011;3265;42.694;23.282;2023-12-20T00:02:13;339.17;;;154.03;;
6463;SDS011;3265;42.694;23.282;2023-12-20T00:04:39;352.23;;;160.27;;
6463;SDS011;3265;42.694;23.282;2023-12-20T00:07:06;350.50;;;160.77;;
6463;SDS011;3265;42.694;23.282;2023-12-20T00:09:35;347.00;;;161.87;;
6463;SDS011;3265;42.694;23.282;2023-12-20T00:12:01;349.27;;;161.17;;
6463;SDS011;3265;42.694;23.282;2023-12-20T00:14:28;306.73;;;141.33;;
6463;SDS011;3265;42.694;23.282;2023-12-20T00:16:55;327.23;;;146.77;;
6463;SDS011;3265;42.694;23.282;2023-12-20T00:19:22;348.63;;;159.83;;
6463;SDS011;3265;42.694;23.282;2023-12-20T00:21:49;335.60;;;155.27;;
6463;SDS011;3265;42.694;23.282;2023-12-20T00:24:28;329.30;;;152.20;;
6463;SDS011;3265;42.694;23.282;2023-12-20T00:26:56;319.60;;;149.43;;
6463;SDS011;3265;42.694;23.282;2023-12-20T00:29:22;314.13;;;146.63;;
6463;SDS011;3265;42.694;23.282;2023-12-20T00:31:49;309.87;;;140.07;;
6463;SDS011;3265;42.694;23.282;2023-12-20T00:34:15;271.57;;;129.37;;
6463;SDS011;3265;42.694;23.282;2023-12-20T00:36:42;250.13;;;113.97;;
6463;SDS011;3265;42.694;23.282;2023-12-20T00:39:09;220.43;;;102.73;;
6463;SDS011;3265;42.694;23.282;2023-12-20T00:41:36;233.40;;;109.87;;
6463;SDS011;3265;42.694;23.282;2023-12-20T00:44:04;252.87;;;118.03;;
6463;SDS011;3265;42.694;23.282;2023-12-20T00:46:31;260.90;;;114.53;;
6463;SDS011;3265;42.694;23.282;2023-12-20T00:48:57;272.10;;;122.80;;
6463;SDS011;3265;42.694;23.282;2023-12-20T00:51:24;256.43;;;122.57;;
6463;SDS011;3265;42.694;23.282;2023-12-20T00:54:02;248.63;;;116.83;;
6463;SDS011;3265;42.694;23.282;2023-12-20T00:56:29;244.10;;;114.03;;
6463;SDS011;3265;42.694;23.282;2023-12-20T00:58:56;223.00;;;101.53;;
6463;SDS011;3265;42.694;23.282;2023-12-20T01:01:24;212.87;;;98.67;;
6463;SDS011;3265;42.694;23.282;2023-12-20T01:03:51;205.93;;;98.17;;
6463;SDS011;3265;42.694;23.282;2023-12-20T01:06:18;197.93;;;94.07;;
6463;SDS011;3265;42.694;23.282;2023-12-20T01:08:45;208.17;;;96.50;;
6463;SDS011;3265;42.694;23.282;2023-12-20T01:11:12;209.93;;;98.70;;
6463;SDS011;3265;42.694;23.282;2023-12-20T01:13:38;208.23;;;97.33;;
6463;SDS011;3265;42.694;23.282;2023-12-20T01:16:06;201.07;;;96.13;;
6463;SDS011;3265;42.694;23.282;2023-12-20T01:18:34;207.17;;;97.13;;
6463;SDS011;3265;42.694;23.282;2023-12-20T01:21:01;222.07;;;102.03;;
6463;SDS011;3265;42.694;23.282;2023-12-20T01:23:28;203.57;;;95.97;;
6463;SDS011;3265;42.694;23.282;2023-12-20T01:25:56;198.47;;;97.73;;
6463;SDS011;3265;42.694;23.282;2023-12-20T01:28:24;205.77;;;97.60;;
6463;SDS011;3265;42.694;23.282;2023-12-20T01:30:51;203.43;;;95.57;;
6463;SDS011;3265;42.694;23.282;2023-12-20T01:33:18;203.50;;;96.47;;
6463;SDS011;3265;42.694;23.282;2023-12-20T01:35:46;198.73;;;95.73;;
6463;SDS011;3265;42.694;23.282;2023-12-20T01:38:13;192.57;;;95.30;;
6463;SDS011;3265;42.694;23.282;2023-12-20T01:40:46;205.63;;;94.87;;
6463;SDS011;3265;42.694;23.282;2023-12-20T01:43:19;196.23;;;92.33;;
6463;SDS011;3265;42.694;23.282;2023-12-20T01:45:46;187.50;;;92.43;;
6463;SDS011;3265;42.694;23.282;2023-12-20T01:48:13;190.20;;;94.43;;
6463;SDS011;3265;42.694;23.282;2023-12-20T01:50:42;187.23;;;91.83;;
6463;SDS011;3265;42.694;23.282;2023-12-20T01:53:12;190.60;;;92.60;;
6463;SDS011;3265;42.694;23.282;2023-12-20T01:55:41;200.30;;;94.47;;
6463;SDS011;3265;42.694;23.282;2023-12-20T01:58:12;191.30;;;93.10;;
6463;SDS011;3265;42.694;23.282;2023-12-20T02:00:53;179.60;;;87.63;;
6463;SDS011;3265;42.694;23.282;2023-12-20T02:03:21;188.30;;;88.23;;
6463;SDS011;3265;42.694;23.282;2023-12-20T02:05:48;192.50;;;92.70;;
6463;SDS011;3265;42.694;23.282;2023-12-20T02:08:16;198.07;;;91.53;;
6463;SDS011;3265;42.694;23.282;2023-12-20T02:10:43;195.30;;;96.20;;
6463;SDS011;3265;42.694;23.282;2023-12-20T02:13:10;186.47;;;88.63;;
6463;SDS011;3265;42.694;23.282;2023-12-20T02:15:40;184.83;;;87.27;;
6463;SDS011;3265;42.694;23.282;2023-12-20T02:18:10;180.77;;;85.67;;
6463;SDS011;3265;42.694;23.282;2023-12-20T02:20:40;175.80;;;80.83;;
6463;SDS011;3265;42.694;23.282;2023-12-20T02:23:08;166.97;;;80.70;;
6463;SDS011;3265;42.694;23.282;2023-12-20T02:25:36;178.53;;;86.20;;
6463;SDS011;3265;42.694;23.282;2023-12-20T02:28:04;178.83;;;84.47;;
6463;SDS011;3265;42.694;23.282;2023-12-20T02:30:32;167.87;;;81.80;;
6463;SDS011;3265;42.694;23.282;2023-12-20T02:33:01;178.33;;;88.17;;
6463;SDS011;3265;42.694;23.282;2023-12-20T02:35:34;176.70;;;86.00;;
6463;SDS011;3265;42.694;23.282;2023-12-20T02:38:00;182.97;;;86.97;;
6463;SDS011;3265;42.694;23.282;2023-12-20T02:40:29;158.90;;;77.07;;
6463;SDS011;3265;42.694;23.282;2023-12-20T02:42:55;161.40;;;73.83;;
6463;SDS011;3265;42.694;23.282;2023-12-20T02:45:22;156.20;;;73.37;;
6463;SDS011;3265;42.694;23.282;2023-12-20T02:47:49;152.20;;;66.43;;
6463;SDS011;3265;42.694;23.282;2023-12-20T02:50:16;138.93;;;59.37;;
6463;SDS011;3265;42.694;23.282;2023-12-20T02:52:44;132.03;;;56.57;;
6463;SDS011;3265;42.694;23.282;2023-12-20T02:55:11;132.20;;;55.20;;
6463;SDS011;3265;42.694;23.282;2023-12-20T02:57:39;109.07;;;46.33;;
6463;SDS011;3265;42.694;23.282;2023-12-20T03:00:07;107.87;;;45.37;;
6463;SDS011;3265;42.694;23.282;2023-12-20T03:02:35;106.20;;;45.73;;
6463;SDS011;3265;42.694;23.282;2023-12-20T03:05:02;123.13;;;46.40;;
6463;SDS011;3265;42.694;23.282;2023-12-20T03:07:29;100.07;;;42.67;;
6463;SDS011;3265;42.694;23.282;2023-12-20T03:09:56;94.40;;;40.03;;
6463;SDS011;3265;42.694;23.282;2023-12-20T03:12:23;90.10;;;38.47;;
6463;SDS011;3265;42.694;23.282;2023-12-20T03:14:51;90.33;;;37.67;;
6463;SDS011;3265;42.694;23.282;2023-12-20T03:17:18;83.87;;;36.67;;
6463;SDS011;3265;42.694;23.282;2023-12-20T03:19:46;74.30;;;34.90;;
6463;SDS011;3265;42.694;23.282;2023-12-20T03:22:12;78.67;;;33.20;;
6463;SDS011;3265;42.694;23.282;2023-12-20T03:24:40;66.57;;;32.30;;
6463;SDS011;3265;42.694;23.282;2023-12-20T03:27:07;74.80;;;33.77;;
6463;SDS011;3265;42.694;23.282;2023-12-20T03:29:34;84.63;;;35.93;;
6463;SDS011;3265;42.694;23.282;2023-12-20T03:32:02;74.63;;;35.13;;
6463;SDS011;3265;42.694;23.282;2023-12-20T03:34:29;80.17;;;36.67;;
6463;SDS011;3265;42.694;23.282;2023-12-20T03:36:56;77.30;;;34.77;;
6463;SDS011;3265;42.694;23.282;2023-12-20T03:39:23;75.77;;;34.27;;
6463;SDS011;3265;42.694;23.282;2023-12-20T03:41:49;76.03;;;35.00;;
6463;SDS011;3265;42.694;23.282;2023-12-20T03:44:16;72.03;;;33.43;;
6463;SDS011;3265;42.694;23.282;2023-12-20T03:46:43;67.87;;;31.83;;
6463;SDS011;3265;42.694;23.282;2023-12-20T03:49:12;70.03;;;30.60;;
6463;SDS011;3265;42.694;23.282;2023-12-20T03:51:38;63.30;;;30.10;;
6463;SDS011;3265;42.694;23.282;2023-12-20T03:54:07;65.43;;;30.13;;
6463;SDS011;3265;42.694;23.282;2023-12-20T03:56:33;66.73;;;31.93;;
6463;SDS011;3265;42.694;23.282;2023-12-20T03:59:00;83.80;;;36.97;;
6463;SDS011;3265;42.694;23.282;2023-12-20T04:01:27;90.87;;;40.67;;
6463;SDS011;3265;42.694;23.282;2023-12-20T04:03:54;80.80;;;35.30;;
6463;SDS011;3265;42.694;23.282;2023-12-20T04:06:22;84.03;;;36.57;;
6463;SDS011;3265;42.694;23.282;2023-12-20T04:08:49;79.30;;;35.70;;
6463;SDS011;3265;42.694;23.282;2023-12-20T04:11:15;81.57;;;33.80;;
6463;SDS011;3265;42.694;23.282;2023-12-20T04:13:42;86.10;;;33.97;;
6463;SDS011;3265;42.694;23.282;2023-12-20T04:16:09;93.80;;;36.80;;
6463;SDS011;3265;42.694;23.282;2023-12-20T04:18:36;92.03;;;36.97;;
6463;SDS011;3265;42.694;23.282;2023-12-20T04:21:03;82.77;;;33.67;;
6463;SDS011;3265;42.694;23.282;2023-12-20T04:23:31;87.00;;;33.63;;
6463;SDS011;3265;42.694;23.282;2023-12-20T04:25:58;84.67;;;35.37;;
6463;SDS011;3265;42.694;23.282;2023-12-20T04:28:25;94.77;;;35.53;;
6463;SDS011;3265;42.694;23.282;2023-12-20T04:30:55;97.03;;;37.47;;
6463;SDS011;3265;42.694;23.282;2023-12-20T04:33:22;110.10;;;36.30;;
6463;SDS011;3265;42.694;23.282;2023-12-20T04:35:49;101.43;;;36.40;;
6463;SDS011;3265;42.694;23.282;2023-12-20T04:38:16;103.00;;;37.17;;
6463;SDS011;3265;42.694;23.282;2023-12-20T04:40:44;103.87;;;38.80;;
6463;SDS011;3265;42.694;23.282;2023-12-20T04:43:11;116.73;;;39.63;;
6463;SDS011;3265;42.694;23.282;2023-12-20T04:45:38;113.80;;;39.07;;
6463;SDS011;3265;42.694;23.282;2023-12-20T04:48:05;98.33;;;40.23;;
6463;SDS011;3265;42.694;23.282;2023-12-20T04:50:32;117.90;;;40.43;;
6463;SDS011;3265;42.694;23.282;2023-12-20T04:52:59;108.57;;;40.03;;
6463;SDS011;3265;42.694;23.282;2023-12-20T04:55:26;111.20;;;39.33;;
6463;SDS011;3265;42.694;23.282;2023-12-20T04:57:54;102.30;;;39.47;;
6463;SDS011;3265;42.694;23.282;2023-12-20T05:00:21;120.43;;;43.13;;
6463;SDS011;3265;42.694;23.282;2023-12-20T05:02:48;110.70;;;41.77;;
6463;SDS011;3265;42.694;23.282;2023-12-20T05:05:15;120.93;;;41.37;;
6463;SDS011;3265;42.694;23.282;2023-12-20T05:07:43;103.53;;;39.43;;
6463;SDS011;3265;42.694;23.282;2023-12-20T05:10:09;119.57;;;40.17;;
6463;SDS011;3265;42.694;23.282;2023-12-20T05:12:36;112.90;;;40.57;;
6463;SDS011;3265;42.694;23.282;2023-12-20T05:15:04;91.93;;;39.30;;
6463;SDS011;3265;42.694;23.282;2023-12-20T05:17:32;89.53;;;37.63;;
6463;SDS011;3265;42.694;23.282;2023-12-20T05:19:59;92.07;;;34.93;;
6463;SDS011;3265;42.694;23.282;2023-12-20T05:22:26;93.03;;;36.67;;
6463;SDS011;3265;42.694;23.282;2023-12-20T05:24:53;89.20;;;37.80;;
6463;SDS011;3265;42.694;23.282;2023-12-20T05:27:20;96.53;;;39.13;;
6463;SDS011;3265;42.694;23.282;2023-12-20T05:29:47;104.90;;;40.07;;
6463;SDS011;3265;42.694;23.282;2023-12-20T05:32:15;110.97;;;40.43;;
6463;SDS011;3265;42.694;23.282;2023-12-20T05:34:42;109.53;;;40.77;;
6463;SDS011;3265;42.694;23.282;2023-12-20T05:37:09;101.87;;;39.97;;
6463;SDS011;3265;42.694;23.282;2023-12-20T05:39:36;104.87;;;40.70;;
6463;SDS011;3265;42.694;23.282;2023-12-20T05:42:03;113.00;;;42.33;;
6463;SDS011;3265;42.694;23.282;2023-12-20T05:44:30;104.57;;;41.73;;
6463;SDS011;3265;42.694;23.282;2023-12-20T05:46:57;97.87;;;42.07;;
6463;SDS011;3265;42.694;23.282;2023-12-20T05:49:25;105.27;;;41.03;;
6463;SDS011;3265;42.694;23.282;2023-12-20T05:51:52;110.17;;;41.23;;
6463;SDS011;3265;42.694;23.282;2023-12-20T05:54:19;109.43;;;43.10;;
6463;SDS011;3265;42.694;23.282;2023-12-20T05:56:51;107.87;;;41.73;;
6463;SDS011;3265;42.694;23.282;2023-12-20T05:59:20;120.37;;;44.43;;
6463;SDS011;3265;42.694;23.282;2023-12-20T06:01:47;109.57;;;42.83;;
6463;SDS011;3265;42.694;23.282;2023-12-20T06:04:14;104.13;;;42.80;;
6463;SDS011;3265;42.694;23.282;2023-12-20T06:06:42;130.33;;;45.40;;
6463;SDS011;3265;42.694;23.282;2023-12-20T06:09:09;134.77;;;48.33;;
6463;SDS011;3265;42.694;23.282;2023-12-20T06:11:37;124.53;;;46.87;;
6463;SDS011;3265;42.694;23.282;2023-12-20T06:14:04;159.20;;;49.53;;
6463;SDS011;3265;42.694;23.282;2023-12-20T06:16:31;117.63;;;48.53;;
6463;SDS011;3265;42.694;23.282;2023-12-20T06:18:57;114.67;;;47.87;;
6463;SDS011;3265;42.694;23.282;2023-12-20T06:21:24;128.97;;;49.27;;
6463;SDS011;3265;42.694;23.282;2023-12-20T06:23:52;153.40;;;51.53;;
6463;SDS011;3265;42.694;23.282;2023-12-20T06:26:20;150.13;;;53.10;;
6463;SDS011;3265;42.694;23.282;2023-12-20T06:28:46;148.10;;;51.93;;
6463;SDS011;3265;42.694;23.282;2023-12-20T06:31:13;161.23;;;52.70;;
6463;SDS011;3265;42.694;23.282;2023-12-20T06:33:40;146.13;;;52.33;;
6463;SDS011;3265;42.694;23.282;2023-12-20T06:36:07;195.63;;;57.30;;
6463;SDS011;3265;42.694;23.282;2023-12-20T06:38:34;167.03;;;58.17;;
6463;SDS011;3265;42.694;23.282;2023-12-20T06:41:02;217.73;;;61.37;;
6463;SDS011;3265;42.694;23.282;2023-12-20T06:43:29;175.47;;;59.77;;
6463;SDS011;3265;42.694;23.282;2023-12-20T06:45:56;151.97;;;60.40;;
6463;SDS011;3265;42.694;23.282;2023-12-20T06:48:23;192.77;;;60.97;;
6463;SDS011;3265;42.694;23.282;2023-12-20T06:50:49;174.30;;;62.80;;
6463;SDS011;3265;42.694;23.282;2023-12-20T06:53:16;217.87;;;64.43;;
6463;SDS011;3265;42.694;23.282;2023-12-20T06:55:43;173.43;;;64.80;;
6463;SDS011;3265;42.694;23.282;2023-12-20T06:58:11;184.50;;;63.33;;
6463;SDS011;3265;42.694;23.282;2023-12-20T07:00:38;228.03;;;69.97;;
6463;SDS011;3265;42.694;23.282;2023-12-20T07:03:04;211.03;;;72.30;;
6463;SDS011;3265;42.694;23.282;2023-12-20T07:05:31;168.17;;;66.60;;
6463;SDS011;3265;42.694;23.282;2023-12-20T07:07:58;196.97;;;68.60;;
6463;SDS011;3265;42.694;23.282;2023-12-20T07:10:25;175.27;;;67.40;;
6463;SDS011;3265;42.694;23.282;2023-12-20T07:12:51;169.10;;;67.27;;
6463;SDS011;3265;42.694;23.282;2023-12-20T07:15:21;275.83;;;76.57;;
6463;SDS011;3265;42.694;23.282;2023-12-20T07:17:48;178.90;;;71.70;;
6463;SDS011;3265;42.694;23.282;2023-12-20T07:20:15;226.70;;;77.90;;
6463;SDS011;3265;42.694;23.282;2023-12-20T07:22:42;201.10;;;76.13;;
6463;SDS011;3265;42.694;23.282;2023-12-20T07:25:09;190.03;;;71.47;;
6463;SDS011;3265;42.694;23.282;2023-12-20T07:27:36;193.67;;;75.17;;
6463;SDS011;3265;42.694;23.282;2023-12-20T07:30:03;189.20;;;73.83;;
6463;SDS011;3265;42.694;23.282;2023-12-20T07:32:32;188.87;;;73.00;;
6463;SDS011;3265;42.694;23.282;2023-12-20T07:34:59;197.30;;;74.23;;
6463;SDS011;3265;42.694;23.282;2023-12-20T07:37:25;183.70;;;74.90;;
6463;SDS011;3265;42.694;23.282;2023-12-20T07:39:52;186.47;;;68.57;;
6463;SDS011;3265;42.694;23.282;2023-12-20T07:42:19;155.30;;;60.87;;
6463;SDS011;3265;42.694;23.282;2023-12-20T07:44:47;164.80;;;61.40;;
6463;SDS011;3265;42.694;23.282;2023-12-20T07:47:13;175.00;;;63.37;;
6463;SDS011;3265;42.694;23.282;2023-12-20T07:49:45;179.20;;;62.40;;
6463;SDS011;3265;42.694;23.282;2023-12-20T07:52:12;168.67;;;61.67;;
6463;SDS011;3265;42.694;23.282;2023-12-20T07:54:39;174.40;;;67.40;;
6463;SDS011;3265;42.694;23.282;2023-12-20T07:57:07;117.73;;;46.27;;
6463;SDS011;3265;42.694;23.282;2023-12-20T07:59:35;144.37;;;50.70;;
6463;SDS011;3265;42.694;23.282;2023-12-20T08:02:02;124.73;;;50.17;;
6463;SDS011;3265;42.694;23.282;2023-12-20T08:04:29;104.67;;;43.13;;
6463;SDS011;3265;42.694;23.282;2023-12-20T08:06:57;99.03;;;41.93;;
6463;SDS011;3265;42.694;23.282;2023-12-20T08:09:25;86.30;;;39.63;;
6463;SDS011;3265;42.694;23.282;2023-12-20T08:11:52;92.03;;;39.90;;
6463;SDS011;3265;42.694;23.282;2023-12-20T08:14:19;93.33;;;39.60;;
6463;SDS011;3265;42.694;23.282;2023-12-20T08:16:46;99.17;;;40.23;;
6463;SDS011;3265;42.694;23.282;2023-12-20T08:19:12;99.70;;;42.50;;
6463;SDS011;3265;42.694;23.282;2023-12-20T08:21:39;99.47;;;41.97;;
6463;SDS011;3265;42.694;23.282;2023-12-20T08:24:08;95.77;;;42.00;;
6463;SDS011;3265;42.694;23.282;2023-12-20T08:26:35;109.40;;;45.93;;
6463;SDS011;3265;42.694;23.282;2023-12-20T08:29:01;114.63;;;47.50;;
6463;SDS011;3265;42.694;23.282;2023-12-20T08:31:28;108.20;;;47.83;;
6463;SDS011;3265;42.694;23.282;2023-12-20T08:33:58;103.23;;;45.83;;
6463;SDS011;3265;42.694;23.282;2023-12-20T08:36:25;97.87;;;44.30;;
6463;SDS011;3265;42.694;23.282;2023-12-20T08:38:52;103.33;;;44.13;;
6463;SDS011;3265;42.694;23.282;2023-12-20T08:41:21;114.67;;;47.53;;
6463;SDS011;3265;42.694;23.282;2023-12-20T08:43:48;114.90;;;49.87;;
6463;SDS011;3265;42.694;23.282;2023-12-20T08:46:18;118.53;;;49.77;;
6463;SDS011;3265;42.694;23.282;2023-12-20T08:48:46;120.23;;;48.43;;
6463;SDS011;3265;42.694;23.282;2023-12-20T08:51:18;119.30;;;48.37;;
6463;SDS011;3265;42.694;23.282;2023-12-20T08:53:47;114.07;;;48.27;;
6463;SDS011;3265;42.694;23.282;2023-12-20T08:56:14;109.43;;;47.23;;
6463;SDS011;3265;42.694;23.282;2023-12-20T08:58:44;110.83;;;45.17;;
6463;SDS011;3265;42.694;23.282;2023-12-20T09:01:11;115.27;;;46.07;;
6463;SDS011;3265;42.694;23.282;2023-12-20T09:03:38;106.43;;;47.03;;
6463;SDS011;3265;42.694;23.282;2023-12-20T09:06:05;118.27;;;49.73;;
6463;SDS011;3265;42.694;23.282;2023-12-20T09:08:32;116.83;;;50.13;;
6463;SDS011;3265;42.694;23.282;2023-12-20T09:10:59;119.97;;;50.53;;
6463;SDS011;3265;42.694;23.282;2023-12-20T09:13:26;123.63;;;53.00;;
6463;SDS011;3265;42.694;23.282;2023-12-20T09:15:59;137.83;;;55.00;;
6463;SDS011;3265;42.694;23.282;2023-12-20T09:18:44;167.60;;;64.70;;
6463;SDS011;3265;42.694;23.282;2023-12-20T09:21:11;157.73;;;67.87;;
6463;SDS011;3265;42.694;23.282;2023-12-20T09:23:41;159.93;;;66.90;;
6463;SDS011;3265;42.694;23.282;2023-12-20T09:26:10;183.47;;;66.80;;
6463;SDS011;3265;42.694;23.282;2023-12-20T09:28:37;170.43;;;68.20;;
6463;SDS011;3265;42.694;23.282;2023-12-20T09:31:06;177.73;;;69.43;;
6463;SDS011;3265;42.694;23.282;2023-12-20T09:33:33;178.60;;;74.03;;
6463;SDS011;3265;42.694;23.282;2023-12-20T09:36:01;173.70;;;71.67;;
6463;SDS011;3265;42.694;23.282;2023-12-20T09:38:28;180.07;;;70.23;;
6463;SDS011;3265;42.694;23.282;2023-12-20T09:40:55;174.90;;;73.93;;
6463;SDS011;3265;42.694;23.282;2023-12-20T09:43:23;181.70;;;72.27;;
6463;SDS011;3265;42.694;23.282;2023-12-20T09:45:52;176.10;;;71.07;;
6463;SDS011;3265;42.694;23.282;2023-12-20T09:48:24;162.23;;;67.37;;
6463;SDS011;3265;42.694;23.282;2023-12-20T09:50:54;170.07;;;69.90;;
6463;SDS011;3265;42.694;23.282;2023-12-20T09:53:21;162.60;;;64.47;;
6463;SDS011;3265;42.694;23.282;2023-12-20T09:55:54;171.47;;;68.33;;
6463;SDS011;3265;42.694;23.282;2023-12-20T09:58:24;165.63;;;67.10;;
6463;SDS011;3265;42.694;23.282;2023-12-20T10:00:50;164.80;;;68.43;;
6463;SDS011;3265;42.694;23.282;2023-12-20T10:03:19;175.53;;;68.77;;
6463;SDS011;3265;42.694;23.282;2023-12-20T10:05:52;176.50;;;71.27;;
6463;SDS011;3265;42.694;23.282;2023-12-20T10:08:22;190.47;;;73.20;;
6463;SDS011;3265;42.694;23.282;2023-12-20T10:10:50;180.20;;;73.87;;
6463;SDS011;3265;42.694;23.282;2023-12-20T10:13:17;181.97;;;74.30;;
6463;SDS011;3265;42.694;23.282;2023-12-20T10:15:44;176.43;;;74.77;;
6463;SDS011;3265;42.694;23.282;2023-12-20T10:18:12;171.70;;;74.37;;
6463;SDS011;3265;42.694;23.282;2023-12-20T10:20:41;176.23;;;75.07;;
6463;SDS011;3265;42.694;23.282;2023-12-20T10:23:08;171.27;;;74.83;;
6463;SDS011;3265;42.694;23.282;2023-12-20T10:25:35;176.07;;;73.77;;
6463;SDS011;3265;42.694;23.282;2023-12-20T10:28:08;168.33;;;75.50;;
6463;SDS011;3265;42.694;23.282;2023-12-20T10:30:36;171.93;;;73.17;;
6463;SDS011;3265;42.694;23.282;2023-12-20T10:33:03;167.90;;;77.47;;
6463;SDS011;3265;42.694;23.282;2023-12-20T10:35:31;157.17;;;72.80;;
6463;SDS011;3265;42.694;23.282;2023-12-20T10:38:01;161.40;;;72.10;;
6463;SDS011;3265;42.694;23.282;2023-12-20T10:40:30;159.27;;;74.57;;
6463;SDS011;3265;42.694;23.282;2023-12-20T10:42:57;161.07;;;73.47;;
6463;SDS011;3265;42.694;23.282;2023-12-20T10:45:26;158.07;;;75.20;;
6463;SDS011;3265;42.694;23.282;2023-12-20T10:47:53;163.20;;;75.27;;
6463;SDS011;3265;42.694;23.282;2023-12-20T10:50:19;154.93;;;75.40;;
6463;SDS011;3265;42.694;23.282;2023-12-20T10:52:46;157.57;;;75.90;;
6463;SDS011;3265;42.694;23.282;2023-12-20T10:55:15;154.20;;;74.73;;
6463;SDS011;3265;42.694;23.282;2023-12-20T10:57:41;159.73;;;77.63;;
6463;SDS011;3265;42.694;23.282;2023-12-20T11:00:10;171.97;;;79.87;;
6463;SDS011;3265;42.694;23.282;2023-12-20T11:02:41;175.97;;;87.63;;
6463;SDS011;3265;42.694;23.282;2023-12-20T11:05:12;184.80;;;90.13;;
6463;SDS011;3265;42.694;23.282;2023-12-20T11:07:46;193.37;;;95.67;;
6463;SDS011;3265;42.694;23.282;2023-12-20T11:10:19;200.27;;;94.03;;
6463;SDS011;3265;42.694;23.282;2023-12-20T11:12:52;196.37;;;96.77;;
6463;SDS011;3265;42.694;23.282;2023-12-20T11:15:24;203.80;;;96.33;;
6463;SDS011;3265;42.694;23.282;2023-12-20T11:17:54;212.43;;;99.07;;
6463;SDS011;3265;42.694;23.282;2023-12-20T11:20:22;220.23;;;109.17;;
6463;SDS011;3265;42.694;23.282;2023-12-20T11:22:53;210.03;;;96.73;;
6463;SDS011;3265;42.694;23.282;2023-12-20T11:25:22;209.83;;;89.43;;
6463;SDS011;3265;42.694;23.282;2023-12-20T11:30:40;194.80;;;86.73;;
6463;SDS011;3265;42.694;23.282;2023-12-20T11:33:07;189.27;;;83.43;;
6463;SDS011;3265;42.694;23.282;2023-12-20T11:35:34;191.80;;;85.53;;
6463;SDS011;3265;42.694;23.282;2023-12-20T11:38:02;173.93;;;83.03;;
6463;SDS011;3265;42.694;23.282;2023-12-20T11:40:31;192.83;;;89.17;;
6463;SDS011;3265;42.694;23.282;2023-12-20T11:43:01;202.90;;;94.63;;
6463;SDS011;3265;42.694;23.282;2023-12-20T11:45:29;206.63;;;97.93;;
6463;SDS011;3265;42.694;23.282;2023-12-20T11:47:56;191.87;;;95.87;;
6463;SDS011;3265;42.694;23.282;2023-12-20T11:50:23;195.73;;;95.50;;
6463;SDS011;3265;42.694;23.282;2023-12-20T11:52:51;198.20;;;96.27;;
6463;SDS011;3265;42.694;23.282;2023-12-20T11:55:19;199.50;;;96.63;;
6463;SDS011;3265;42.694;23.282;2023-12-20T11:57:47;194.67;;;94.97;;
6463;SDS011;3265;42.694;23.282;2023-12-20T12:00:14;186.27;;;93.77;;
6463;SDS011;3265;42.694;23.282;2023-12-20T12:02:42;189.10;;;95.27;;
6463;SDS011;3265;42.694;23.282;2023-12-20T12:05:11;179.33;;;95.07;;
6463;SDS011;3265;42.694;23.282;2023-12-20T12:07:38;171.30;;;91.67;;
6463;SDS011;3265;42.694;23.282;2023-12-20T12:10:07;195.27;;;95.80;;
6463;SDS011;3265;42.694;23.282;2023-12-20T12:12:34;185.87;;;91.67;;
6463;SDS011;3265;42.694;23.282;2023-12-20T12:15:02;184.53;;;89.33;;
6463;SDS011;3265;42.694;23.282;2023-12-20T12:17:29;171.97;;;89.33;;
6463;SDS011;3265;42.694;23.282;2023-12-20T12:20:01;177.43;;;88.47;;
6463;SDS011;3265;42.694;23.282;2023-12-20T12:22:29;164.07;;;83.27;;
6463;SDS011;3265;42.694;23.282;2023-12-20T12:24:58;152.17;;;79.87;;
6463;SDS011;3265;42.694;23.282;2023-12-20T12:27:35;177.23;;;81.93;;
6463;SDS011;3265;42.694;23.282;2023-12-20T12:30:08;156.13;;;78.27;;
6463;SDS011;3265;42.694;23.282;2023-12-20T12:32:38;153.97;;;75.23;;
6463;SDS011;3265;42.694;23.282;2023-12-20T12:35:05;151.77;;;78.63;;
6463;SDS011;3265;42.694;23.282;2023-12-20T12:37:34;152.03;;;75.33;;
6463;SDS011;3265;42.694;23.282;2023-12-20T12:40:01;146.97;;;71.43;;
6463;SDS011;3265;42.694;23.282;2023-12-20T12:42:30;152.97;;;74.23;;
6463;SDS011;3265;42.694;23.282;2023-12-20T12:44:57;145.43;;;70.33;;
6463;SDS011;3265;42.694;23.282;2023-12-20T12:47:25;152.77;;;71.30;;
6463;SDS011;3265;42.694;23.282;2023-12-20T12:49:52;132.60;;;70.23;;
6463;SDS011;3265;42.694;23.282;2023-12-20T12:52:19;149.37;;;70.33;;
6463;SDS011;3265;42.694;23.282;2023-12-20T12:54:46;142.50;;;68.13;;
6463;SDS011;3265;42.694;23.282;2023-12-20T12:57:13;131.93;;;67.73;;
6463;SDS011;3265;42.694;23.282;2023-12-20T12:59:40;133.40;;;67.40;;
6463;SDS011;3265;42.694;23.282;2023-12-20T13:02:07;142.73;;;67.87;;
6463;SDS011;3265;42.694;23.282;2023-12-20T13:04:35;144.97;;;70.97;;
6463;SDS011;3265;42.694;23.282;2023-12-20T13:07:02;158.27;;;72.53;;
6463;SDS011;3265;42.694;23.282;2023-12-20T13:09:29;145.57;;;70.67;;
6463;SDS011;3265;42.694;23.282;2023-12-20T13:11:56;159.77;;;73.23;;
6463;SDS011;3265;42.694;23.282;2023-12-20T13:14:24;169.33;;;75.80;;
6463;SDS011;3265;42.694;23.282;2023-12-20T13:16:51;155.30;;;74.60;;
6463;SDS011;3265;42.694;23.282;2023-12-20T13:19:17;149.27;;;70.53;;
6463;SDS011;3265;42.694;23.282;2023-12-20T13:21:46;159.73;;;73.20;;
6463;SDS011;3265;42.694;23.282;2023-12-20T13:24:13;155.10;;;70.43;;
6463;SDS011;3265;42.694;23.282;2023-12-20T13:26:40;147.17;;;68.83;;
6463;SDS011;3265;42.694;23.282;2023-12-20T13:29:07;158.77;;;68.90;;
6463;SDS011;3265;42.694;23.282;2023-12-20T13:31:34;153.73;;;69.37;;
6463;SDS011;3265;42.694;23.282;2023-12-20T13:34:02;161.77;;;69.33;;
6463;SDS011;3265;42.694;23.282;2023-12-20T13:36:29;163.03;;;68.43;;
6463;SDS011;3265;42.694;23.282;2023-12-20T13:38:57;150.20;;;66.07;;
6463;SDS011;3265;42.694;23.282;2023-12-20T13:41:24;148.23;;;67.80;;
6463;SDS011;3265;42.694;23.282;2023-12-20T13:43:52;150.97;;;67.27;;
6463;SDS011;3265;42.694;23.282;2023-12-20T13:46:19;170.37;;;72.83;;
6463;SDS011;3265;42.694;23.282;2023-12-20T13:48:46;188.07;;;72.37;;
6463;SDS011;3265;42.694;23.282;2023-12-20T13:51:14;170.40;;;71.23;;
6463;SDS011;3265;42.694;23.282;2023-12-20T13:53:41;184.47;;;73.50;;
6463;SDS011;3265;42.694;23.282;2023-12-20T13:56:10;178.07;;;72.53;;
6463;SDS011;3265;42.694;23.282;2023-12-20T13:58:37;171.13;;;70.27;;
6463;SDS011;3265;42.694;23.282;2023-12-20T14:01:05;170.23;;;70.03;;
6463;SDS011;3265;42.694;23.282;2023-12-20T14:03:31;156.70;;;68.20;;
6463;SDS011;3265;42.694;23.282;2023-12-20T14:05:58;169.53;;;69.00;;
6463;SDS011;3265;42.694;23.282;2023-12-20T14:08:26;161.90;;;67.47;;
6463;SDS011;3265;42.694;23.282;2023-12-20T14:10:53;170.10;;;68.80;;
6463;SDS011;3265;42.694;23.282;2023-12-20T14:13:21;167.53;;;69.33;;
6463;SDS011;3265;42.694;23.282;2023-12-20T14:15:48;175.90;;;71.27;;
6463;SDS011;3265;42.694;23.282;2023-12-20T14:18:15;170.53;;;69.03;;
6463;SDS011;3265;42.694;23.282;2023-12-20T14:20:43;183.00;;;70.83;;
6463;SDS011;3265;42.694;23.282;2023-12-20T14:23:12;175.63;;;69.67;;
6463;SDS011;3265;42.694;23.282;2023-12-20T14:25:39;175.57;;;69.53;;
6463;SDS011;3265;42.694;23.282;2023-12-20T14:28:07;176.67;;;70.57;;
6463;SDS011;3265;42.694;23.282;2023-12-20T14:30:36;180.73;;;70.67;;